Flight Track Log - Related Links

Times and Time Zones

All times are in EDT time to prevent confusion due to time zone crossing. See the N848N flight status page for this flight to view local times or setup timezone preferences in your user account.

Time Position Orientation Groundspeed Altitude Reporting Facility
EDT Latitude Longitude Course Direction KTS MPH feet Rate Location/Type
Fri 03:33:15 PM 40.9837 -85.1611 175° South  Level FlightAware Approximate
Fri 03:34:15 PM 40.9920 -85.0234 228° Southwest  Level FlightAware Approximate
Fri 03:35:08 PM 40.9058 -85.1517 79° East 416 479 6,700  Level Chicago Center
Fri 03:36:08 PM 40.9225 -85.0406 69° East 365 420 7,000 850 Climbing Chicago Center
Fri 03:37:08 PM 40.9536 -84.9311 45° Northeast 306 352 8,400 2,203 Climbing Chicago Center
Fri 03:39:35 PM 41.0939 -84.7467 48° Northeast 292 336 14,600 2,638 Climbing Cleveland Center
Fri 03:40:35 PM 41.1492 -84.6647 50° Northeast 304 350 17,500 2,700 Climbing Cleveland Center
Fri 03:41:35 PM 41.2042 -84.5769 51° Northeast 299 344 20,000 2,500 Climbing Cleveland Center
Fri 03:42:35 PM 41.2575 -84.4892 59° Northeast 299 344 22,500 2,300 Climbing Cleveland Center
Fri 03:43:35 PM 41.3025 -84.3894 61° Northeast 307 353 24,600 1,750 Climbing Cleveland Center
Fri 03:44:35 PM 41.3478 -84.2786 64° Northeast 328 377 26,000 1,450 Climbing Cleveland Center
Fri 03:45:35 PM 41.3958 -84.1486 65° Northeast 349 402 27,500 1,550 Climbing Cleveland Center
Fri 03:46:35 PM 41.4414 -84.0181 69° East 365 420 29,100 1,350 Climbing Cleveland Center
Fri 03:47:35 PM 41.4808 -83.8789 80° East 387 445 30,200 1,350 Climbing Cleveland Center
Fri 03:48:35 PM 41.4997 -83.7300 84° East 393 452 31,800 1,350 Climbing Cleveland Center
Fri 03:49:35 PM 41.5122 -83.5753 83° East 412 474 32,900 1,100 Climbing Cleveland Center
Fri 03:50:35 PM 41.5267 -83.4150 83° East 424 488 34,000 1,000 Climbing Cleveland Center
Fri 03:51:35 PM 41.5408 -83.2603 82° East 429 494 34,900 500 Climbing Cleveland Center
Fri 03:52:35 PM 41.5572 -83.0944 84° East 435 501 35,000 50 Climbing Cleveland Center
Fri 03:53:35 PM 41.5714 -82.9147 84° East 467 537 35,000 100 Level Cleveland Center
Fri 03:54:35 PM 41.5853 -82.7319 84° East 484 557 35,200 800 Climbing Cleveland Center
Fri 03:55:35 PM 41.5989 -82.5547 84° East 484 557 36,600 900 Climbing Cleveland Center
Fri 03:56:35 PM 41.6122 -82.3800 84° East 479 551 37,000 200 Climbing Cleveland Center
Fri 03:57:35 PM 41.6256 -82.1997 84° East 485 558 37,000  Level Cleveland Center
Fri 03:58:35 PM 41.6381 -82.0306 84° East 492 566 37,000  Level Cleveland Center
Fri 03:59:35 PM 41.6528 -81.8475 85° East 497 572 37,000  Level Cleveland Center
Fri 04:00:35 PM 41.6650 -81.6617 84° East 497 572 37,000  Level Cleveland Center
Fri 04:01:35 PM 41.6794 -81.4589 86° East 497 572 37,000 50 Level Cleveland Center
Fri 04:02:35 PM 41.6889 -81.2728 84° East 497 572 37,100 400 Climbing Cleveland Center
Fri 04:03:35 PM 41.7025 -81.0947 85° East 497 572 37,800 700 Climbing Cleveland Center
Fri 04:04:35 PM 41.7136 -80.9169 89° East 486 559 38,500 750 Climbing Cleveland Center
Fri 04:05:35 PM 41.7161 -80.7417 90° East 478 550 39,300 800 Climbing Cleveland Center
Fri 04:06:35 PM 41.7161 -80.5719 90° East 468 539 40,100 750 Climbing Cleveland Center
Fri 04:07:35 PM 41.7158 -80.4022 90° East 453 521 40,800 300 Climbing Cleveland Center
Fri 04:09:35 PM 41.7172 -80.0853 91° East 447 514 41,000 67 Climbing Cleveland Center
Fri 04:10:35 PM 41.7142 -79.9128 68° East 447 514 41,000  Level Cleveland Center
Fri 04:11:35 PM 41.7569 -79.7675 46° Northeast 425 489 41,000  Level Cleveland Center
Fri 04:12:35 PM 41.8417 -79.6494 47° Northeast 434 499 41,000  Level Cleveland Center
Fri 04:13:35 PM 41.9322 -79.5197 46° Northeast 429 494 41,000  Level Cleveland Center
Fri 04:14:35 PM 42.0144 -79.4039 46° Northeast 424 488 41,000  Level Cleveland Center
Fri 04:15:35 PM 42.0986 -79.2847 56° Northeast 424 488 41,000  Level Cleveland Center
Fri 04:16:35 PM 42.1658 -79.1489 83° East 424 488 41,000  Level Cleveland Center
Fri 04:17:35 PM 42.1803 -78.9778 105° East 429 494 41,000  Level Cleveland Center
Fri 04:18:35 PM 42.1464 -78.8078 111° Southeast 429 494 41,000  Level Cleveland Center
Fri 04:19:35 PM 42.1000 -78.6411 110° East 448 516 41,000 -100 Level Cleveland Center
Fri 04:20:35 PM 42.0553 -78.4772 110° East 454 522 40,800 -550 Descending Cleveland Center
Fri 04:21:35 PM 42.0083 -78.3056 110° East 466 536 39,900 -950 Descending Cleveland Center
Fri 04:22:35 PM 41.9611 -78.1342 112° Southeast 481 554 38,900 -1,309 Descending Cleveland Center
Fri 04:24:43 PM 41.8578 -77.7861 110° East 497 572 35,800 -1,238 Descending New York Center
Fri 04:25:44 PM 41.8114 -77.6169 111° Southeast 491 565 35,000 -397 Descending New York Center
Fri 04:26:44 PM 41.7631 -77.4450 111° Southeast 485 558 35,000 -200 Level New York Center
Fri 04:27:44 PM 41.7139 -77.2761 110° East 485 558 34,600 -893 Descending New York Center
Fri 04:28:45 PM 41.6669 -77.1050 110° East 485 558 33,200 -1,537 Descending New York Center
Fri 04:29:45 PM 41.6144 -76.9167 110° East 490 564 31,500 -1,736 Descending New York Center
Fri 04:30:46 PM 41.5669 -76.7461 108° East 483 556 29,700 -1,765 Descending New York Center
Fri 04:31:44 PM 41.5306 -76.5958 102° East 483 556 28,000 -1,750 Descending New York Center
Fri 04:32:46 PM 41.5017 -76.4161 102° East 483 556 26,200 -1,815 Descending New York Center
Fri 04:33:43 PM 41.4725 -76.2392 111° Southeast 488 562 24,400 -1,846 Descending New York Center
Fri 04:34:43 PM 41.4256 -76.0803 117° Southeast 477 549 22,600 -1,918 Descending New York Center
Fri 04:35:45 PM 41.3642 -75.9181 118° Southeast 452 520 20,500 -1,900 Descending New York Center
Fri 04:36:43 PM 41.3058 -75.7728 117° Southeast 446 513 18,800 -1,815 Descending New York Center
Fri 04:37:44 PM 41.2589 -75.6478 114° Southeast 446 513 16,900 -2,182 Descending New York Center
Fri 04:38:44 PM 41.2106 -75.5036 113° Southeast 398 458 14,400 -2,164 Descending New York Center
Fri 04:39:46 PM 41.1678 -75.3711 114° Southeast 388 447 12,500 -1,966 Descending New York Center
Fri 04:40:43 PM 41.1267 -75.2497 115° Southeast 382 440 10,500 -1,881 Descending New York Center
Fri 04:41:44 PM 41.0947 -75.1569 114° Southeast 331 381 8,800 -1,686 Descending New York Center
Fri 04:42:44 PM 41.0592 -75.0500 115° Southeast 312 359 7,100 -1,388 Descending New York Center
Fri 04:43:45 PM 41.0194 -74.9347 93° East 306 352 6,000 -893 Descending New York Center
Fri 04:44:45 PM 41.0150 -74.8244 87° East 292 336 5,300 -800 Descending New York Center
Fri 04:45:45 PM 41.0183 -74.7283 89° East 292 336 4,400 -958 Descending New York Center
Fri 04:46:44 PM 41.0200 -74.6131 89° East 292 336 3,400 -650 Descending New York Center
Fri 04:47:45 PM 41.0208 -74.5194 89° East 287 330 3,100 -149 Descending New York Center
Fri 04:48:45 PM 41.0222 -74.4097 97° East 276 318 3,100  Level New York Center
Fri 04:49:15 PM 41.0167 -74.3500 78° East 272 313 3,100 -125 Level New York TRACON
Fri 04:50:21 PM 41.0333 -74.2500 90° East 276 318 2,900 -429 Descending New York TRACON
Fri 04:51:21 PM 41.0333 -74.1500 108° East 237 273 2,200 -400 Descending New York TRACON
Fri 04:52:21 PM 41.0167 -74.0833 143° Southeast 187 215 2,100 -53 Descending New York TRACON
Fri 04:53:15 PM 40.9833 -74.0500 180° South 179 206 2,100 -211 Level New York TRACON
Fri 04:54:15 PM 40.9333 -74.0500 180° South 166 191 1,700 -600 Descending New York TRACON
Fri 04:55:15 PM 40.9000 -74.0500 180° South 153 176 900 -800 Descending New York TRACON

Login

Don't have an account? Register now (free) for customized features, flight alerts, and more!